10-Minute Data

Pierce College

10 Minute Data | America/Los_Angeles
as of 10/24/20 2:09 AM PDT
Date & Time Temp Max (°F) Temp Min (°F) RH (%) Dew Pt (°F) Latest Rain (In) Seasonal Rainfall (In) Soil Temp (°F) Soil Moist (%) Pressure (mb) (mb) Wind Spd (mph) Wind Dir (°) Wind Gust (mph) Wind Gst Dir (°) Leaf Wet Raw (mV) Net Radiation (W/m²) Evap Pan Wind Spd (mph) Evap Pan WindRun (miles) Evap Pan H2O Temp (°F) Evap Pan Level (In)
10/24/20 - 0200 61.7 61.4 78 54.7 0.00 0.00 75.4 30.3 1,016.7 0.8 WSW | 239 2.1 W | 268 272 -11 0.5 0.5 61.7 3.7
10/24/20 - 0150 61.6 61.4 78 54.7 0.00 0.00 75.6 30.3 1,016.6 0.1 W | 273 1.3 WNW | 287 272 -13 0.0 0.4 61.9 3.7
10/24/20 - 0140 61.6 61.3 79 54.8 0.00 0.00 75.7 30.3 1,016.8 0.5 SW | 235 1.8 WSW | 253 272 -11 0.1 0.4 61.8 3.7
10/24/20 - 0130 61.6 61.2 79 54.7 0.00 0.00 75.7 30.4 1,016.8 0.5 SW | 214 1.4 SSW | 206 272 -10 0.1 0.4 61.6 3.7
10/24/20 - 0120 61.5 61.2 79 54.8 0.00 0.00 75.7 30.4 1,016.7 0.0 N | 0 0.0 WSW | 254 272 -10 0.0 0.3 61.5 3.7
10/24/20 - 0110 61.4 61.0 79 54.7 0.00 0.00 75.8 30.4 1,016.7 0.4 SW | 235 1.5 SW | 219 272 -9 0.2 0.3 61.2 3.7
10/24/20 - 0100 61.4 61.0 79 54.6 0.00 0.00 75.7 30.4 1,016.7 0.2 SSW | 205 1.3 SW | 224 272 -12 0.0 0.3 60.9 3.7
10/24/20 - 0050 61.3 61.0 79 54.6 0.00 0.00 75.2 30.4 1,016.6 0.5 SSW | 200 2.0 SSW | 201 272 -14 0.2 0.3 60.4 3.7
10/24/20 - 0040 61.4 61.1 79 54.7 0.00 0.00 75.2 30.4 1,016.7 0.2 S | 189 0.9 S | 191 272 -14 0.0 0.3 60.3 3.7
10/24/20 - 0030 61.2 60.9 79 54.7 0.00 0.00 75.2 30.4 1,016.7 0.7 W | 260 2.6 WSW | 248 272 -19 0.5 0.3 60.2 3.7
10/24/20 - 0020 61.2 60.5 80 54.8 0.00 0.00 75.3 30.4 1,016.8 1.2 SSW | 193 3.2 SW | 235 272 -12 0.7 0.2 59.5 3.7
10/24/20 - 0010 60.6 60.2 80 54.4 0.00 0.00 75.3 30.4 1,017.0 1.3 S | 182 3.2 S | 188 273 -10 0.5 0.1 58.4 3.7
10/24/20 - 0000 60.8 60.4 80 54.4 0.00 0.00 75.3 30.4 1,016.6 0.6 SSW | 206 2.0 S | 190 273 -32 0.1 12.9 58.2 3.7
10/23/20 - 2350 60.9 60.5 80 54.5 0.00 0.00 75.2 30.4 1,016.8 0.5 SSW | 202 1.8 SW | 236 273 -28 0.1 12.9 58.6 3.7
10/23/20 - 2340 60.9 60.5 80 54.6 0.00 0.00 75.3 30.4 1,016.9 2.0 SSW | 199 4.0 SSW | 211 273 -28 1.0 12.9 58.4 3.7
10/23/20 - 2330 60.7 60.4 80 54.5 0.00 0.00 75.4 30.4 1,016.9 1.7 SSW | 201 3.0 WSW | 238 273 -28 1.0 12.7 57.6 3.7
10/23/20 - 2320 60.6 60.3 80 54.4 0.00 0.00 75.3 30.4 1,016.9 2.1 SSW | 200 3.6 SSW | 208 273 -35 1.1 12.6 57.0 3.7
10/23/20 - 2310 60.5 60.2 81 54.4 0.00 0.00 75.4 30.4 1,017.0 1.7 SSW | 196 3.7 SW | 224 273 -33 0.8 12.4 56.1 3.7
10/23/20 - 2300 60.6 60.0 80 54.2 0.00 0.00 75.4 30.4 1,017.0 0.9 S | 186 2.9 SW | 229 273 -35 0.2 12.2 55.4 3.7
10/23/20 - 2250 60.6 60.1 80 53.9 0.00 0.00 75.3 30.4 1,016.9 0.8 SSW | 197 2.5 SW | 226 274 -42 0.2 12.2 56.0 3.7
10/23/20 - 2240 60.9 60.3 79 54.0 0.00 0.00 75.4 30.5 1,016.8 0.7 SSE | 161 1.7 S | 170 273 -45 0.1 12.2 56.9 3.7
10/23/20 - 2230 61.2 60.8 78 54.0 0.00 0.00 75.4 30.4 1,016.8 1.0 S | 184 2.3 SSW | 196 273 -45 0.2 12.2 57.8 3.7
10/23/20 - 2220 61.6 61.1 77 54.0 0.00 0.00 75.8 30.4 1,016.8 1.2 S | 184 2.0 SSW | 202 272 -44 0.5 12.1 59.2 3.7
10/23/20 - 2210 62.1 61.4 76 54.0 0.00 0.00 75.8 30.4 1,016.8 1.6 S | 186 3.2 SSW | 207 272 -43 0.9 12.0 60.4 3.7
10/23/20 - 2200 62.3 61.8 75 54.0 0.00 0.00 75.8 30.4 1,016.7 1.6 SSW | 206 4.1 SSW | 196 272 -35 0.9 11.9 61.2 3.7
10/23/20 - 2150 62.4 62.0 75 54.0 0.00 0.00 75.8 30.4 1,016.7 2.1 SSW | 209 4.1 SW | 220 271 -24 1.4 11.7 61.5 3.7
10/23/20 - 2140 62.4 62.2 74 53.9 0.00 0.00 75.8 30.4 1,016.7 2.0 SW | 216 4.1 S | 188 271 -23 1.4 11.5 61.4 3.7
10/23/20 - 2130 62.4 62.0 73 53.7 0.00 0.00 75.9 30.4 1,016.6 2.2 SSW | 209 3.5 SSW | 209 271 -23 1.4 11.2 61.3 3.7
10/23/20 - 2120 62.5 62.2 72 53.4 0.00 0.00 75.9 30.5 1,016.4 1.9 SW | 232 3.4 WSW | 248 271 -24 1.2 11.0 61.1 3.7
10/23/20 - 2110 62.5 62.2 72 53.2 0.00 0.00 75.8 30.5 1,016.4 1.7 SW | 221 3.0 SW | 214 271 -22 1.1 10.8 60.8 3.7
10/23/20 - 2100 62.4 61.9 72 53.1 0.00 0.00 75.8 30.4 1,016.4 1.9 SSW | 208 3.5 SSW | 208 271 -15 1.2 10.6 59.7 3.7
10/23/20 - 2050 62.1 61.5 73 53.0 0.00 0.00 75.9 30.5 1,016.2 1.2 SSW | 210 2.8 SW | 230 271 -15 0.5 10.4 58.0 3.7
10/23/20 - 2040 61.6 60.9 75 53.1 0.00 0.00 75.9 30.5 1,016.2 1.0 SW | 223 2.3 SW | 227 272 -19 0.2 10.4 56.1 3.7
10/23/20 - 2030 61.0 60.4 76 53.1 0.00 0.00 75.8 30.5 1,016.2 0.9 SSW | 192 1.6 SSW | 194 272 -25 0.1 10.3 54.4 3.7
10/23/20 - 2020 60.6 60.0 77 53.0 0.00 0.00 75.8 30.5 1,016.1 0.6 SSW | 209 1.3 SW | 216 272 -39 0.0 10.3 53.8 3.7
10/23/20 - 2010 60.9 60.1 75 52.5 0.00 0.00 75.9 30.5 1,016.0 0.7 S | 188 1.2 S | 182 272 -47 0.2 10.3 54.4 3.7
10/23/20 - 2000 61.6 60.8 74 52.7 0.00 0.00 75.9 30.5 1,015.9 0.7 SSW | 192 1.6 SSW | 200 272 -49 0.0 10.3 55.1 3.7
10/23/20 - 1950 62.5 61.6 72 52.8 0.00 0.00 75.9 30.5 1,015.8 0.2 S | 187 1.3 S | 186 271 -52 0.0 10.3 56.3 3.7
10/23/20 - 1940 62.6 62.3 71 53.0 0.00 0.00 75.9 30.5 1,015.8 1.2 S | 182 1.8 SSW | 194 271 -54 0.4 10.3 57.1 3.7
10/23/20 - 1930 63.0 62.5 70 52.9 0.00 0.00 75.9 30.5 1,015.8 1.6 SSW | 195 2.8 WSW | 253 271 -54 0.7 10.2 57.5 3.7
10/23/20 - 1920 63.1 62.8 70 53.1 0.00 0.00 75.9 30.5 1,015.7 1.2 SSW | 205 2.6 SSW | 194 271 -52 0.6 10.1 57.9 3.7
10/23/20 - 1910 63.4 63.0 69 53.0 0.00 0.00 75.8 30.5 1,015.7 1.5 SW | 215 2.9 SSW | 205 271 -50 0.5 10.0 58.4 3.7
10/23/20 - 1900 63.7 63.2 69 53.0 0.00 0.00 75.8 30.5 1,015.5 1.2 SSW | 210 1.7 SW | 230 270 -50 0.7 9.9 59.6 3.7
10/23/20 - 1850 64.4 63.6 68 53.2 0.00 0.00 75.8 30.5 1,015.4 1.1 SSW | 205 1.8 SW | 226 270 -51 0.5 9.8 61.0 3.7
10/23/20 - 1840 64.7 64.2 67 53.3 0.00 0.00 75.8 30.5 1,015.2 2.0 SW | 216 3.3 SSW | 204 270 -51 1.2 9.7 62.2 3.7
10/23/20 - 1830 64.9 64.5 67 53.3 0.00 0.00 75.9 30.5 1,015.2 2.2 WSW | 244 3.9 SW | 226 270 -49 1.5 9.5 62.7 3.7
10/23/20 - 1820 65.3 64.7 66 53.3 0.00 0.00 75.7 30.5 1,015.1 1.7 SSW | 192 2.7 S | 188 270 -47 0.9 9.2 63.7 3.7
10/23/20 - 1810 65.6 65.1 65 53.4 0.00 0.00 75.8 30.5 1,015.0 1.7 SSE | 168 4.0 SW | 214 270 -46 1.0 9.1 64.7 3.7
10/23/20 - 1800 65.8 65.3 65 53.5 0.00 0.00 75.7 30.4 1,015.0 2.3 S | 176 4.5 SSW | 194 270 -39 1.6 8.9 65.7 3.7
10/23/20 - 1750 66.2 65.7 65 53.8 0.00 0.00 75.7 30.5 1,015.1 3.0 S | 173 5.9 SSW | 204 270 -32 2.1 8.7 66.5 3.7
10/23/20 - 1740 66.9 66.2 64 54.1 0.00 0.00 75.6 30.4 1,015.0 2.9 S | 183 5.2 S | 177 270 -29 2.1 8.3 67.6 3.7
10/23/20 - 1730 67.4 66.7 63 54.2 0.00 0.00 75.6 30.4 1,015.0 2.5 S | 178 4.7 SSW | 195 269 -21 1.7 8.0 68.8 3.7
10/23/20 - 1720 67.6 67.3 63 54.4 0.00 0.00 75.6 30.5 1,015.0 1.9 S | 169 3.7 S | 177 269 -10 1.2 7.7 70.0 3.7
10/23/20 - 1710 68.0 67.3 62 54.2 0.00 0.00 75.6 30.5 1,015.0 3.0 S | 180 6.6 S | 186 269 4 2.1 7.5 71.1 3.7
10/23/20 - 1700 68.4 67.8 60 54.0 0.00 0.00 75.6 30.4 1,015.0 2.8 S | 180 4.9 S | 185 269 16 2.0 7.1 72.4 3.7
10/23/20 - 1650 68.8 68.3 60 53.8 0.00 0.00 75.5 30.4 1,015.0 2.4 SE | 128 5.5 SE | 132 269 21 1.5 6.8 74.5 3.7
10/23/20 - 1640 69.6 68.6 58 53.6 0.00 0.00 75.6 30.4 1,015.0 2.6 SSE | 155 4.6 SSE | 155 269 56 1.8 6.6 76.8 3.7
10/23/20 - 1630 69.7 68.8 57 53.5 0.00 0.00 75.5 30.4 1,014.9 2.7 SSE | 158 5.3 ESE | 103 268 150 1.9 6.3 76.0 3.7
10/23/20 - 1620 69.9 68.8 57 53.3 0.00 0.00 75.5 30.4 1,014.9 3.0 SE | 143 6.0 SW | 216 269 97 1.6 5.9 75.2 3.7
10/23/20 - 1610 69.8 69.4 55 52.7 0.00 0.00 75.5 30.4 1,014.9 1.0 S | 187 3.8 SSW | 194 268 68 0.7 5.7 76.0 3.7
10/23/20 - 1600 69.9 68.8 55 52.8 0.00 0.00 75.4 30.4 1,014.9 1.7 SE | 145 3.5 SSW | 197 268 113 1.3 5.6 75.8 3.7
10/23/20 - 1550 69.1 68.6 56 52.7 0.00 0.00 75.4 30.4 1,014.8 3.0 SE | 141 5.6 SE | 135 268 125 1.4 5.4 75.2 3.7
10/23/20 - 1540 69.4 69.0 56 52.8 0.00 0.00 75.5 30.4 1,014.8 2.0 SSE | 161 4.1 SE | 145 268 70 1.6 5.1 76.6 3.7
10/23/20 - 1530 69.5 69.1 56 53.1 0.00 0.00 75.4 30.4 1,014.8 1.9 SE | 137 4.4 SSW | 200 268 97 1.3 4.9 78.5 3.7
10/23/20 - 1520 69.4 68.6 57 53.2 0.00 0.00 75.4 30.4 1,014.7 2.0 SE | 124 4.5 SE | 129 268 147 1.2 4.6 79.7 3.7
10/23/20 - 1510 69.0 68.4 57 53.2 0.00 0.00 75.3 30.4 1,014.8 1.9 SSE | 149 3.6 E | 83 269 130 1.3 4.4 79.7 3.7
10/23/20 - 1500 68.9 68.1 58 53.2 0.00 0.00 75.4 30.4 1,014.9 2.8 ESE | 123 5.9 SE | 141 268 147 1.4 4.2 78.8 3.7
10/23/20 - 1450 68.8 68.1 59 53.3 0.00 0.00 75.4 30.4 1,014.9 1.9 SSE | 147 4.2 ESE | 119 269 135 1.2 4.0 78.1 3.7
10/23/20 - 1440 68.3 68.0 59 53.2 0.00 0.00 75.3 30.4 1,015.0 2.7 SE | 142 5.4 SE | 136 269 115 1.6 3.8 76.9 3.7
10/23/20 - 1430 68.4 68.1 59 53.2 0.00 0.00 75.3 30.4 1,015.0 2.4 SSE | 153 4.7 SSW | 210 269 94 1.7 3.5 76.6 3.7
10/23/20 - 1420 68.4 68.0 59 53.4 0.00 0.00 75.4 30.4 1,015.0 1.9 SSE | 161 4.6 ESE | 122 269 69 1.2 3.2 77.0 3.7
10/23/20 - 1410 69.0 68.1 58 53.1 0.00 0.00 75.2 30.4 1,015.1 2.6 S | 178 5.1 S | 183 269 70 1.7 3.0 78.7 3.7
10/23/20 - 1400 69.2 68.6 57 52.9 0.00 0.00 75.3 30.4 1,015.1 1.5 SSE | 153 4.3 SSW | 200 269 104 1.1 2.8 79.4 3.7
10/23/20 - 1350 69.1 68.6 56 52.6 0.00 0.00 75.3 30.4 1,015.2 2.0 SSE | 164 4.1 S | 174 269 100 1.5 2.6 80.1 3.7
10/23/20 - 1340 69.6 68.7 56 52.7 0.00 0.00 75.2 30.4 1,015.3 1.5 ESE | 118 4.5 SE | 144 268 109 0.9 2.3 80.8 3.7
10/23/20 - 1330 69.8 69.2 55 52.8 0.00 0.00 75.2 30.4 1,015.4 0.6 ESE | 104 2.4 ENE | 63 268 126 0.4 2.2 80.7 3.7
10/23/20 - 1320 69.8 69.1 55 52.7 0.00 0.00 75.3 30.4 1,015.5 0.9 ENE | 74 3.2 ENE | 70 268 123 0.5 2.1 81.2 3.7
10/23/20 - 1310 69.6 68.8 56 52.6 0.00 0.00 75.2 30.4 1,015.6 1.0 ENE | 78 3.7 SE | 138 268 140 0.5 2.0 81.7 3.7
10/23/20 - 1300 69.3 68.4 57 52.9 0.00 0.00 75.3 30.4 1,015.6 0.8 NNE | 26 3.7 NE | 39 268 161 0.6 1.9 81.3 3.7
10/23/20 - 1250 68.9 68.5 57 52.7 0.00 0.00 75.3 30.4 1,015.8 1.4 NNE | 29 3.5 NNE | 14 269 165 0.6 1.8 81.0 3.7
10/23/20 - 1240 68.8 68.1 58 53.2 0.00 0.00 75.3 30.4 1,015.9 1.6 NNE | 20 3.2 N | 350 269 179 0.5 1.7 80.8 3.7
10/23/20 - 1230 68.3 67.9 59 53.4 0.00 0.00 75.3 30.4 1,016.1 1.4 NNE | 32 4.0 NNE | 19 269 185 0.5 1.6 79.2 3.7
10/23/20 - 1220 68.2 67.7 60 53.4 0.00 0.00 75.3 30.4 1,016.2 1.7 ENE | 70 3.9 ENE | 65 269 168 0.7 1.6 78.1 3.7
10/23/20 - 1210 68.1 67.6 60 53.5 0.00 0.00 75.3 30.4 1,016.3 1.6 NE | 55 2.9 N | 0 269 174 0.6 1.4 77.0 3.7
10/23/20 - 1200 67.8 67.4 60 53.4 0.00 0.00 75.3 30.4 1,016.4 1.1 ENE | 68 3.2 ESE | 115 269 156 0.4 1.3 76.2 3.7
10/23/20 - 1150 67.5 67.0 61 53.5 0.00 0.00 75.3 30.4 1,016.5 1.1 NE | 40 2.5 N | 10 270 141 0.3 1.3 74.2 3.7
10/23/20 - 1140 67.3 66.6 62 53.4 0.00 0.00 75.3 30.4 1,016.6 0.5 ENE | 60 1.5 NE | 49 270 101 0.4 1.2 73.2 3.7
10/23/20 - 1130 66.7 66.4 63 53.4 0.00 0.00 75.3 30.4 1,016.6 1.5 NE | 50 2.6 ENE | 64 270 74 0.4 1.2 73.2 3.7
10/23/20 - 1120 66.6 66.2 63 53.5 0.00 0.00 75.4 30.4 1,016.7 0.9 NNE | 17 2.9 N | 2 270 77 0.1 1.1 73.6 3.7
10/23/20 - 1110 66.4 66.1 65 54.1 0.00 0.00 75.5 30.4 1,016.7 1.2 N | 10 3.3 N | 0 270 96 0.3 1.1 73.2 3.7
10/23/20 - 1100 66.3 65.8 66 54.3 0.00 0.00 75.4 30.4 1,016.8 1.0 NE | 41 2.5 NE | 43 270 88 0.3 1.0 72.0 3.7
10/23/20 - 1050 66.1 65.4 67 54.4 0.00 0.00 75.3 30.4 1,016.8 1.2 NE | 39 3.5 ESE | 104 270 91 0.4 1.0 70.3 3.7
10/23/20 - 1040 65.6 65.2 67 54.1 0.00 0.00 75.3 30.5 1,016.8 0.6 ENE | 65 1.7 ENE | 65 270 54 0.3 0.9 69.2 3.7
10/23/20 - 1030 65.4 65.1 67 54.2 0.00 0.00 75.4 30.4 1,016.8 1.1 NE | 54 2.3 ENE | 74 271 38 0.2 0.9 68.9 3.7
10/23/20 - 1020 65.3 64.9 67 53.9 0.00 0.00 75.4 30.5 1,016.8 1.4 ENE | 57 2.5 NE | 54 271 49 0.5 0.8 68.4 3.7
10/23/20 - 1010 65.3 64.9 67 53.9 0.00 0.00 75.4 30.5 1,016.7 1.1 ENE | 73 2.6 E | 94 271 44 0.6 0.7 68.2 3.7
10/23/20 - 1000 65.2 64.8 68 54.0 0.00 0.00 75.4 30.4 1,016.7 0.9 E | 79 2.6 ESE | 107 271 34 0.2 0.6 68.0 3.7
10/23/20 - 0950 65.0 64.4 69 54.4 0.00 0.00 75.4 30.5 1,016.7 0.6 ENE | 69 1.4 NE | 46 271 42 0.2 0.6 67.4 3.7
10/23/20 - 0940 64.5 64.2 71 54.7 0.00 0.00 75.4 30.5 1,016.7 0.7 ENE | 70 2.1 ENE | 69 271 32 0.2 0.6 66.9 3.7
10/23/20 - 0930 64.4 64.1 72 54.9 0.00 0.00 75.4 30.5 1,016.6 1.5 E | 85 2.8 ENE | 76 271 30 0.7 0.5 66.6 3.7
10/23/20 - 0920 64.3 63.8 72 54.9 0.00 0.00 75.5 30.5 1,016.6 1.0 E | 81 2.8 ESE | 109 272 28 0.4 0.4 66.2 3.7
10/23/20 - 0910 64.1 63.8 72 54.9 0.00 0.00 75.5 30.5 1,016.7 1.5 E | 91 3.8 ENE | 78 272 22 0.7 0.4 65.9 3.7
10/23/20 - 0900 64.2 63.8 73 55.1 0.00 0.00 75.5 30.5 1,016.6 0.5 E | 90 2.8 E | 81 272 16 0.1 0.2 65.6 3.7
10/23/20 - 0850 64.0 63.5 74 55.2 0.00 0.00 75.6 30.5 1,016.5 0.4 E | 101 2.1 ENE | 65 272 12 0.3 0.2 65.2 3.7
10/23/20 - 0840 63.7 63.3 74 55.0 0.00 0.00 75.5 30.5 1,016.3 0.6 E | 94 1.8 ESE | 102 272 10 0.1 0.2 64.7 3.7
10/23/20 - 0830 63.5 63.2 75 55.1 0.00 0.00 75.6 30.5 1,016.2 0.7 ESE | 114 2.2 E | 95 272 7 0.2 0.1 64.4 3.7
10/23/20 - 0820 63.5 63.1 75 55.1 0.00 0.00 75.6 30.5 1,016.1 0.6 ESE | 122 1.3 ESE | 122 272 0 0.0 0.1 64.0 3.7
10/23/20 - 0810 63.4 63.0 75 55.0 0.00 0.00 75.6 30.5 1,015.9 0.3 ENE | 73 1.5 ENE | 64 272 -1 0.0 0.1 63.8 3.7
10/23/20 - 0800 63.1 62.9 75 55.0 0.00 0.00 75.6 30.5 1,015.8 0.5 ESE | 107 1.8 E | 80 272 -4 0.1 0.1 63.5 3.7
10/23/20 - 0750 63.1 62.8 75 55.0 0.00 0.00 75.6 30.5 1,015.6 0.0 N | 0 0.0 E | 89 272 -5 0.0 0.1 63.3 3.7
10/23/20 - 0740 63.1 62.7 76 55.1 0.00 0.00 75.7 30.5 1,015.5 0.3 E | 83 1.8 ESE | 115 272 -7 0.0 0.1 63.2 3.7
10/23/20 - 0730 63.0 62.7 76 55.1 0.00 0.00 75.7 30.5 1,015.4 0.1 E | 87 1.1 ENE | 75 272 -9 0.0 0.1 63.0 3.7
10/23/20 - 0720 62.9 62.6 76 55.1 0.00 0.00 75.7 30.5 1,015.3 0.2 SSE | 154 1.2 SSE | 148 272 -10 0.0 0.1 63.0 3.7
10/23/20 - 0710 62.8 62.5 76 54.9 0.00 0.00 75.7 30.5 1,015.2 0.5 ENE | 76 2.0 SE | 142 272 -11 0.1 0.1 63.0 3.7
10/23/20 - 0700 62.7 62.4 76 55.0 0.00 0.00 75.7 30.5 1,015.0 0.8 ESE | 115 2.8 ESE | 106 272 -11 0.4 0.1 62.8 3.7
10/23/20 - 0650 62.6 62.5 77 55.1 0.00 0.00 75.9 30.5 1,014.9 0.2 NE | 48 1.3 NE | 36 272 -11 0.0 0.0 62.9 3.7
10/23/20 - 0640 62.6 62.5 77 55.2 0.00 0.00 76.0 30.5 1,014.8 0.0 N | 0 0.0 ESE | 106 272 -11 0.0 0.0 63.0 3.7
10/23/20 - 0630 62.8 62.5 77 55.2 0.00 0.00 76.0 30.5 1,014.8 0.0 N | 0 0.0 E | 101 272 -11 0.0 0.0 63.0 3.7
10/23/20 - 0620 62.7 62.5 77 55.3 0.00 0.00 76.0 30.5 1,014.7 0.0 N | 0 0.0 E | 101 272 -10 0.0 0.0 63.0 3.7
10/23/20 - 0610 62.7 62.3 77 55.2 0.00 0.00 76.0 30.5 1,014.6 0.0 N | 0 0.0 E | 94 272 -11 0.0 0.0 63.0 3.7
10/23/20 - 0600 62.6 62.3 77 55.2 0.00 0.00 76.0 30.5 1,014.5 0.0 N | 0 0.0 ESE | 111 272 -11 0.0 0.0 62.9 3.7
10/23/20 - 0550 62.6 62.3 77 55.2 0.00 0.00 76.0 30.5 1,014.4 0.0 E | 99 0.2 E | 99 272 -11 0.0 0.0 62.9 3.7
10/23/20 - 0540 62.6 62.3 77 55.2 0.00 0.00 75.9 30.5 1,014.3 0.0 E | 99 0.6 E | 96 272 -10 0.0 0.0 62.8 3.7
10/23/20 - 0530 62.6 62.3 77 55.2 0.00 0.00 75.9 30.5 1,014.2 0.0 N | 0 0.0 E | 94 272 -10 0.0 0.0 62.7 3.7
10/23/20 - 0520 62.5 62.2 77 55.2 0.00 0.00 76.0 30.5 1,014.2 0.0 N | 0 0.0 SSW | 194 272 -10 0.0 0.0 62.7 3.7
10/23/20 - 0510 62.6 62.2 77 55.2 0.00 0.00 76.0 30.5 1,014.0 0.1 SSW | 193 0.8 SSW | 194 272 -11 0.0 0.0 62.6 3.7
10/23/20 - 0500 62.6 62.2 78 55.3 0.00 0.00 76.0 30.5 1,014.0 0.0 N | 0 0.0 E | 89 272 -10 0.0 0.0 62.7 3.7
10/23/20 - 0450 62.4 62.2 78 55.3 0.00 0.00 76.0 30.5 1,013.9 0.0 N | 0 0.0 E | 94 272 -10 0.0 0.0 62.7 3.7
10/23/20 - 0440 62.4 62.2 77 55.2 0.00 0.00 76.0 30.6 1,013.9 0.0 N | 0 0.0 S | 190 272 -10 0.0 0.0 62.5 3.7
10/23/20 - 0430 62.5 62.1 77 55.0 0.00 0.00 76.1 30.5 1,013.9 0.0 N | 0 0.0 S | 190 272 -10 0.0 0.0 62.4 3.7
10/23/20 - 0420 62.5 62.1 77 55.0 0.00 0.00 76.1 30.6 1,013.9 0.0 N | 0 0.0 S | 190 272 -10 0.0 0.0 62.5 3.7
10/23/20 - 0410 62.2 62.0 77 55.0 0.00 0.00 76.1 30.6 1,013.9 0.1 SSW | 194 0.5 SSW | 198 272 -10 0.0 0.0 62.4 3.7
10/23/20 - 0400 62.3 62.0 77 54.8 0.00 0.00 76.1 30.6 1,013.9 0.2 S | 183 0.7 S | 182 272 -10 0.0 0.0 62.4 3.7
10/23/20 - 0350 62.3 61.8 77 54.8 0.00 0.00 76.1 30.6 1,014.0 0.0 N | 0 0.0 S | 189 272 -10 0.0 0.0 62.5 3.7
10/23/20 - 0340 62.1 61.9 77 54.6 0.00 0.00 76.2 30.6 1,014.0 0.3 S | 182 1.2 S | 185 272 -10 0.0 0.0 62.5 3.7
10/23/20 - 0330 62.1 61.9 77 54.6 0.00 0.00 76.2 30.6 1,014.0 0.0 N | 0 0.0 ESE | 114 272 -10 0.0 0.0 62.5 3.7
10/23/20 - 0320 62.1 61.8 77 54.5 0.00 0.00 76.5 30.6 1,014.1 0.1 E | 94 0.6 E | 94 272 -10 0.0 0.0 62.5 3.7
10/23/20 - 0310 62.2 61.7 77 54.5 0.00 0.00 76.5 30.6 1,014.1 0.3 SE | 137 1.6 SE | 139 272 -10 0.0 0.0 62.6 3.7
10/23/20 - 0300 62.0 61.7 77 54.4 0.00 0.00 76.6 30.6 1,014.2 0.1 SE | 135 1.2 S | 170 272 -10 0.0 0.0 62.4 3.7
10/23/20 - 0250 62.0 61.7 76 54.2 0.00 0.00 76.7 30.6 1,014.2 0.3 SE | 142 1.7 SE | 142 272 -10 0.0 0.0 62.4 3.7
10/23/20 - 0240 62.0 61.6 76 54.2 0.00 0.00 76.7 30.6 1,014.2 0.0 N | 0 0.0 SE | 129 272 -10 0.0 0.0 62.5 3.7
10/23/20 - 0230 61.8 61.5 76 54.1 0.00 0.00 76.6 30.6 1,014.3 0.1 S | 180 0.9 S | 184 272 -10 0.0 0.0 62.3 3.7
10/23/20 - 0220 61.9 61.4 76 54.1 0.00 0.00 76.7 30.6 1,014.3 0.0 E | 98 0.9 E | 100 272 -9 0.0 0.0 62.4 3.7
10/23/20 - 0210 61.5 61.3 77 54.1 0.00 0.00 76.6 30.6 1,014.3 0.2 SE | 128 1.2 SE | 136 272 -9 0.0 0.0 62.0 3.7
10/23/20 - 0200 61.4 61.1 77 54.1 0.00 0.00 76.7 30.6 1,014.3 0.2 SE | 144 1.6 SE | 138 272 -9 0.0 0.0 61.9 3.7
10/23/20 - 0150 61.3 60.8 78 54.1 0.00 0.00 76.7 30.6 1,014.3 0.0 N | 0 0.0 SSW | 205 272 -8 0.0 0.0 61.8 3.7
10/23/20 - 0140 61.1 60.8 78 53.9 0.00 0.00 76.8 30.6 1,014.3 0.0 N | 0 0.0 E | 89 272 -9 0.0 0.0 61.6 3.7
10/23/20 - 0130 61.0 60.6 78 53.9 0.00 0.00 76.8 30.6 1,014.4 0.0 E | 88 0.4 E | 87 272 -8 0.0 0.0 61.5 3.7
10/23/20 - 0120 60.8 60.4 79 53.9 0.00 0.00 76.8 30.6 1,014.4 0.0 N | 0 0.0 ESE | 103 272 -8 0.0 0.0 61.4 3.7
10/23/20 - 0110 60.5 60.2 79 54.0 0.00 0.00 76.9 30.7 1,014.4 0.0 ESE | 103 0.5 E | 96 273 -9 0.0 0.0 61.2 3.7
10/23/20 - 0100 60.4 60.1 80 54.1 0.00 0.00 76.9 30.7 1,014.4 0.0 N | 0 0.0 ENE | 77 273 -8 0.0 0.0 61.0 3.7
10/23/20 - 0050 60.3 59.8 81 54.1 0.00 0.00 76.9 30.7 1,014.4 0.0 N | 0 0.0 ENE | 77 273 -8 0.0 0.0 60.8 3.7
10/23/20 - 0040 60.0 59.6 81 54.1 0.00 0.00 77.0 30.7 1,014.4 0.0 N | 0 0.0 ENE | 73 273 -8 0.0 0.0 60.5 3.7
10/23/20 - 0030 59.7 59.4 82 54.0 0.00 0.00 77.0 30.7 1,014.5 0.0 N | 0 0.0 ENE | 73 273 -8 0.0 0.0 60.1 3.7
10/23/20 - 0020 59.6 59.0 83 54.0 0.00 0.00 77.0 30.7 1,014.4 0.0 N | 0 0.0 ENE | 73 273 -7 0.0 0.0 59.7 3.7
10/23/20 - 0010 59.2 58.7 84 54.0 0.00 0.00 77.1 30.7 1,014.5 0.0 N | 0 0.0 ENE | 73 273 -8 0.0 0.0 59.2 3.7
10/23/20 - 0000 58.8 58.4 84 54.0 0.00 0.00 77.2 30.7 1,014.5 0.0 N | 0 0.0 E | 80 274 -7 0.0 11.0 58.5 3.7
10/22/20 - 2350 58.5 57.9 86 53.9 0.00 0.00 77.2 30.7 1,014.5 0.0 N | 0 0.0 E | 80 274 -5 0.0 11.0 57.8 3.7
10/22/20 - 2340 58.1 57.4 86 53.7 0.00 0.00 77.3 30.7 1,014.5 0.0 N | 0 0.0 E | 80 274 -5 0.0 11.0 56.6 3.7
10/22/20 - 2330 57.5 56.8 87 53.4 0.00 0.00 77.3 30.7 1,014.4 0.1 ESE | 113 0.7 SE | 132 276 -4 0.0 11.0 54.8 3.7
10/22/20 - 2320 57.0 56.0 88 52.8 0.00 0.00 77.3 30.7 1,014.3 0.2 SSE | 149 2.1 SSE | 154 248 -5 0.0 11.0 52.4 3.7
10/22/20 - 2310 56.4 55.9 87 52.4 0.00 0.00 77.3 30.7 1,014.3 0.1 SSE | 149 1.1 SSE | 154 247 -11 0.0 11.0 50.6 3.7
10/22/20 - 2300 56.1 55.8 86 52.0 0.00 0.00 77.4 30.7 1,014.3 0.3 SSE | 168 0.9 S | 176 249 -13 0.1 11.0 49.5 3.7
10/22/20 - 2250 56.5 55.9 86 52.2 0.00 0.00 77.4 30.7 1,014.2 0.1 S | 170 0.7 S | 174 251 -19 0.0 11.0 49.3 3.7
10/22/20 - 2240 56.6 56.2 86 52.3 0.00 0.00 77.5 30.8 1,014.1 0.2 SSE | 147 1.2 SE | 137 250 -22 0.0 11.0 49.2 3.7
10/22/20 - 2230 56.8 56.3 85 52.1 0.00 0.00 77.5 30.8 1,014.1 0.1 SSE | 163 0.8 S | 174 248 -25 0.0 11.0 49.3 3.7
10/22/20 - 2220 57.3 56.8 85 52.5 0.00 0.00 77.5 30.8 1,013.9 0.3 S | 175 1.4 S | 184 249 -27 0.0 11.0 49.5 3.7
10/22/20 - 2210 57.8 57.2 84 52.6 0.00 0.00 77.6 30.8 1,013.9 0.0 S | 184 0.3 S | 184 248 -32 0.0 11.0 49.8 3.7
10/22/20 - 2200 57.7 57.3 84 52.5 0.00 0.00 77.6 30.8 1,013.8 0.0 N | 0 0.0 SSW | 213 253 -36 0.0 11.0 50.3 3.7
10/22/20 - 2150 57.8 57.4 84 52.7 0.00 0.00 77.6 30.8 1,013.8 0.0 SSW | 212 0.5 SSW | 213 263 -39 0.0 11.0 50.8 3.7
10/22/20 - 2140 57.8 57.4 83 52.5 0.00 0.00 77.8 30.8 1,013.8 0.1 S | 186 0.8 S | 186 268 -43 0.0 11.0 51.2 3.7
10/22/20 - 2130 57.9 57.4 82 52.0 0.00 0.00 77.6 30.8 1,013.7 0.0 S | 186 0.0 S | 186 272 -45 0.0 11.0 51.6 3.7
10/22/20 - 2120 58.1 57.6 81 52.2 0.00 0.00 77.7 30.8 1,013.7 0.1 ESE | 109 0.8 ENE | 77 268 -48 0.0 11.0 52.2 3.7
10/22/20 - 2110 58.1 57.8 81 52.2 0.00 0.00 77.7 30.8 1,013.7 0.2 SSE | 163 1.1 S | 169 272 -49 0.0 11.0 52.6 3.7
10/22/20 - 2100 58.6 57.9 82 52.8 0.00 0.00 77.7 30.8 1,013.6 0.5 SSE | 168 1.5 S | 172 272 -50 0.0 11.0 53.0 3.7
10/22/20 - 2050 58.5 57.9 81 52.4 0.00 0.00 77.8 30.9 1,013.6 0.4 SSE | 162 1.2 S | 182 271 -51 0.0 11.0 53.4 3.7
10/22/20 - 2040 58.2 57.9 81 52.3 0.00 0.00 77.8 30.8 1,013.5 0.9 S | 175 1.9 S | 182 273 -51 0.9 11.0 53.0 3.7
10/22/20 - 2030 58.8 57.9 79 51.9 0.00 0.00 77.8 30.8 1,013.5 0.7 SSE | 164 1.8 S | 182 272 -51 0.1 10.8 53.0 3.7
10/22/20 - 2020 59.5 58.6 78 52.3 0.00 0.00 77.8 30.8 1,013.5 0.1 SE | 143 1.1 SE | 136 272 -52 0.0 10.8 53.2 3.7
10/22/20 - 2010 60.2 59.2 77 52.7 0.00 0.00 77.8 30.9 1,013.4 0.6 SSE | 150 1.4 SE | 132 272 -52 0.1 10.8 53.4 3.7
10/22/20 - 2000 60.7 60.0 77 53.2 0.00 0.00 77.9 30.9 1,013.4 0.1 SE | 142 1.1 SE | 136 272 -52 0.0 10.8 53.8 3.7
10/22/20 - 1950 60.6 60.3 77 53.2 0.00 0.00 77.9 30.8 1,013.4 0.8 S | 177 1.7 S | 182 272 -53 0.2 10.8 54.2 3.7
10/22/20 - 1940 61.1 60.3 75 52.8 0.00 0.00 77.8 30.9 1,013.2 0.7 S | 183 1.2 SSW | 196 272 -53 0.4 10.8 54.6 3.7
10/22/20 - 1930 61.3 60.9 75 53.2 0.00 0.00 77.8 30.8 1,013.1 1.5 SSW | 192 2.0 SSW | 196 272 -53 0.6 10.7 54.7 3.7
10/22/20 - 1920 62.1 61.2 73 53.1 0.00 0.00 77.8 30.9 1,013.1 0.4 S | 177 1.0 S | 186 272 -54 0.0 10.6 55.2 3.7
10/22/20 - 1910 62.8 61.9 72 53.1 0.00 0.00 77.9 30.9 1,012.9 0.4 S | 174 1.3 S | 189 271 -54 0.0 10.6 56.0 3.7
10/22/20 - 1900 63.2 62.5 71 53.3 0.00 0.00 77.8 30.9 1,012.8 0.9 SSW | 192 1.6 SSW | 208 271 -56 0.2 10.6 56.7 3.7
10/22/20 - 1850 63.4 62.9 70 53.2 0.00 0.00 77.8 30.8 1,012.7 1.5 SSW | 201 2.1 SSW | 213 271 -57 0.8 10.6 57.6 3.7
10/22/20 - 1840 64.0 63.3 69 53.2 0.00 0.00 77.8 30.9 1,012.6 1.3 SSW | 205 1.7 SSW | 211 270 -58 0.5 10.4 58.9 3.7
10/22/20 - 1830 65.3 64.0 67 53.3 0.00 0.00 77.8 30.8 1,012.6 1.1 SSW | 203 1.8 SSW | 212 270 -59 0.4 10.3 60.6 3.7
10/22/20 - 1820 65.9 65.2 65 53.7 0.00 0.00 77.8 30.9 1,012.6 1.0 SSW | 202 1.9 SSW | 194 270 -61 0.6 10.3 62.7 3.7
10/22/20 - 1810 66.6 65.8 64 53.6 0.00 0.00 77.8 30.9 1,012.6 1.3 S | 174 4.3 SSE | 153 270 -60 0.7 10.2 64.6 3.7
10/22/20 - 1800 67.3 66.4 63 53.7 0.00 0.00 77.8 30.9 1,012.6 0.7 SSE | 155 1.5 SSE | 148 270 -56 0.4 10.1 66.4 3.7
10/22/20 - 1750 67.7 67.2 62 53.8 0.00 0.00 77.8 30.8 1,012.6 1.4 SE | 132 3.5 SE | 133 270 -50 0.4 10.0 68.0 3.7
10/22/20 - 1740 68.3 67.5 61 53.7 0.00 0.00 77.7 30.8 1,012.5 2.2 SE | 129 4.1 SE | 132 269 -45 0.9 9.9 69.7 3.7
10/22/20 - 1730 68.8 68.1 59 53.8 0.00 0.00 77.7 30.8 1,012.5 2.1 ESE | 122 4.7 ESE | 123 269 -26 1.1 9.8 71.4 3.7
10/22/20 - 1720 69.1 68.5 58 53.6 0.00 0.00 77.7 30.8 1,012.5 2.5 S | 180 4.3 SSW | 192 269 -10 1.7 9.6 72.5 3.7
10/22/20 - 1710 69.3 68.9 58 53.7 0.00 0.00 77.6 30.8 1,012.5 2.2 SSE | 158 4.3 SE | 134 269 10 1.3 9.3 73.3 3.7
10/22/20 - 1700 69.7 68.9 58 53.8 0.00 0.00 77.7 30.8 1,012.4 2.8 SE | 136 5.5 SE | 143 269 31 1.1 9.1 73.9 3.7
10/22/20 - 1650 69.8 69.2 58 53.9 0.00 0.00 77.3 30.8 1,012.4 2.7 SSE | 149 5.2 S | 183 269 53 1.8 8.9 74.4 3.7
10/22/20 - 1640 70.3 69.8 57 54.0 0.00 0.00 76.9 30.8 1,012.4 2.8 SSE | 167 4.9 SE | 124 268 78 2.0 8.6 74.4 3.7
10/22/20 - 1630 70.3 69.5 57 53.9 0.00 0.00 76.9 30.8 1,012.4 2.5 SSE | 168 4.7 SE | 134 268 98 1.8 8.3 74.2 3.7
10/22/20 - 1620 69.6 68.9 58 53.8 0.00 0.00 76.9 30.8 1,012.4 2.9 SSE | 148 6.7 SSE | 149 269 98 1.4 8.0 74.2 3.7
10/22/20 - 1610 70.2 69.3 57 53.8 0.00 0.00 76.8 30.8 1,012.4 2.6 ESE | 121 4.4 SE | 136 269 81 1.4 7.7 75.3 3.7
10/22/20 - 1600 71.2 70.2 56 54.1 0.00 0.00 76.9 30.8 1,012.4 2.2 ESE | 112 5.0 S | 183 269 119 1.2 7.5 76.9 3.7
10/22/20 - 1550 72.0 70.1 55 54.4 0.00 0.00 77.0 30.8 1,012.3 2.3 E | 90 4.8 ESE | 113 268 224 1.3 7.3 77.5 3.7
10/22/20 - 1540 70.6 70.1 56 54.2 0.00 0.00 76.9 30.8 1,012.3 3.2 SE | 141 6.1 SE | 138 269 255 2.0 7.1 77.0 3.7
10/22/20 - 1530 71.1 70.0 57 54.4 0.00 0.00 76.9 30.8 1,012.2 2.7 SE | 126 5.1 ESE | 111 268 207 1.6 6.7 77.4 3.7
10/22/20 - 1520 70.6 68.9 58 54.3 0.00 0.00 76.9 30.8 1,012.3 0.8 SSW | 202 2.5 WNW | 287 268 180 0.9 6.5 78.0 3.7
10/22/20 - 1510 69.4 68.8 59 54.1 0.00 0.00 76.9 30.8 1,012.3 2.7 SSE | 154 4.9 SSW | 209 269 137 1.5 6.3 78.4 3.7
10/22/20 - 1500 69.5 69.1 58 54.0 0.00 0.00 76.9 30.8 1,012.3 2.2 ESE | 115 4.9 SE | 137 269 123 1.1 6.1 78.8 3.7
10/22/20 - 1450 69.5 68.9 58 54.0 0.00 0.00 76.9 30.8 1,012.3 1.1 E | 98 3.0 SE | 141 269 127 0.6 5.9 79.4 3.7
10/22/20 - 1440 69.7 69.1 58 54.0 0.00 0.00 76.9 30.8 1,012.4 1.9 SSE | 162 4.6 SE | 129 269 124 1.3 5.8 79.3 3.7
10/22/20 - 1430 69.3 68.4 59 54.0 0.00 0.00 76.9 30.8 1,012.4 1.0 WSW | 238 2.6 E | 100 269 115 0.7 5.6 78.7 3.7
10/22/20 - 1420 69.3 68.4 59 54.1 0.00 0.00 76.9 30.8 1,012.4 2.4 S | 177 4.6 S | 186 269 108 1.8 5.5 78.1 3.7
10/22/20 - 1410 69.5 69.0 58 54.1 0.00 0.00 77.0 30.8 1,012.4 1.9 SE | 139 3.8 ESE | 123 269 99 1.1 5.2 78.4 3.7
10/22/20 - 1400 69.7 69.2 58 53.8 0.00 0.00 76.9 30.8 1,012.5 0.9 ESE | 123 3.4 SE | 135 269 100 0.7 5.0 78.7 3.7
10/22/20 - 1350 69.7 69.1 58 53.8 0.00 0.00 76.9 30.8 1,012.5 1.2 SSE | 154 2.9 SSW | 195 269 122 1.1 4.9 79.1 3.7
10/22/20 - 1340 69.7 69.0 58 53.9 0.00 0.00 76.9 30.8 1,012.5 1.5 NW | 304 4.0 SSW | 199 269 148 1.8 4.7 78.6 3.7
10/22/20 - 1330 69.3 68.6 59 53.8 0.00 0.00 77.0 30.8 1,012.7 1.4 NE | 44 4.2 NNE | 29 269 152 0.4 4.4 77.6 3.7
10/22/20 - 1320 69.0 68.3 59 53.8 0.00 0.00 76.9 30.8 1,012.8 1.4 ENE | 69 3.1 E | 85 269 129 0.7 4.3 76.8 3.7
10/22/20 - 1310 68.9 68.4 60 54.2 0.00 0.00 77.0 30.8 1,013.0 1.5 NE | 46 4.1 NE | 51 269 119 0.5 4.2 76.8 3.7
10/22/20 - 1300 68.6 68.2 60 54.2 0.00 0.00 77.0 30.8 1,013.0 1.0 ENE | 72 3.2 SE | 130 269 111 0.6 4.1 76.5 3.7
10/22/20 - 1250 68.5 67.8 61 54.3 0.00 0.00 77.0 30.8 1,013.1 1.0 ENE | 73 2.7 NE | 36 269 113 0.4 4.0 76.2 3.7
10/22/20 - 1240 67.9 67.5 62 54.3 0.00 0.00 77.0 30.8 1,013.2 1.6 E | 98 3.6 SE | 137 269 114 0.8 4.0 75.9 3.7
10/22/20 - 1230 67.9 67.6 62 54.5 0.00 0.00 77.0 30.8 1,013.2 1.7 ENE | 70 3.4 E | 89 270 127 0.7 3.8 75.4 3.7
10/22/20 - 1220 67.7 67.2 63 54.6 0.00 0.00 77.0 30.8 1,013.3 1.0 ENE | 70 2.4 ESE | 107 270 127 0.6 3.7 74.5 3.7
10/22/20 - 1210 67.4 66.9 64 54.6 0.00 0.00 77.0 30.8 1,013.3 1.4 ESE | 111 3.3 ENE | 67 270 103 0.8 3.6 74.1 3.7
10/22/20 - 1200 67.3 66.7 64 54.7 0.00 0.00 77.0 30.8 1,013.4 0.7 ESE | 108 2.0 SSE | 149 270 94 0.4 3.5 73.7 3.7
10/22/20 - 1150 66.9 66.4 65 54.6 0.00 0.00 77.0 30.8 1,013.4 1.5 SSE | 161 4.1 S | 190 270 87 1.1 3.4 73.3 3.7
10/22/20 - 1140 67.0 66.4 65 54.7 0.00 0.00 77.1 30.8 1,013.5 0.8 SSE | 166 3.6 ESE | 105 270 86 0.5 3.2 73.0 3.7
10/22/20 - 1130 66.7 66.3 65 54.4 0.00 0.00 77.1 30.9 1,013.6 1.0 SE | 124 3.6 ENE | 70 270 85 0.6 3.1 72.6 3.7
10/22/20 - 1120 67.3 66.6 64 54.5 0.00 0.00 77.1 30.8 1,013.6 1.5 E | 94 4.2 ESE | 107 270 100 0.6 3.1 73.1 3.7
10/22/20 - 1110 67.1 66.2 65 54.7 0.00 0.00 77.1 30.8 1,013.5 0.7 ENE | 78 1.9 ENE | 75 270 91 0.4 3.0 72.9 3.7
10/22/20 - 1100 66.4 66.1 66 54.4 0.00 0.00 77.2 30.8 1,013.4 1.5 WSW | 244 2.8 SW | 230 270 88 1.3 2.9 72.9 3.7
10/22/20 - 1050 66.6 65.9 66 54.5 0.00 0.00 77.2 30.9 1,013.4 0.8 SSW | 194 2.1 SSW | 206 270 93 0.6 2.7 72.3 3.7
10/22/20 - 1040 66.0 65.7 67 54.5 0.00 0.00 77.2 30.9 1,013.5 1.2 SE | 129 2.8 SSE | 150 270 94 0.6 2.6 70.7 3.7
10/22/20 - 1030 66.0 65.5 67 54.7 0.00 0.00 77.3 30.9 1,013.5 1.4 ESE | 111 5.0 E | 83 270 82 0.9 2.5 69.8 3.7
10/22/20 - 1020 65.8 65.2 69 55.0 0.00 0.00 77.3 30.9 1,013.4 1.1 SE | 138 3.2 SE | 140 271 66 0.5 2.3 69.1 3.7
10/22/20 - 1010 65.6 65.3 69 55.1 0.00 0.00 77.2 30.9 1,013.5 1.3 S | 173 3.5 S | 177 271 51 1.0 2.2 68.8 3.7
10/22/20 - 1000 65.6 65.2 70 55.4 0.00 0.00 77.2 30.9 1,013.4 0.7 E | 95 2.7 ENE | 72 271 49 0.3 2.1 68.4 3.7
10/22/20 - 0950 65.6 65.3 69 55.2 0.00 0.00 77.3 30.9 1,013.4 1.0 E | 91 2.6 ENE | 68 271 48 0.6 2.0 68.4 3.7
10/22/20 - 0940 65.6 64.9 70 55.3 0.00 0.00 77.2 30.9 1,013.4 0.1 ENE | 73 1.6 NE | 39 271 46 0.2 1.9 68.4 3.7
10/22/20 - 0930 65.1 64.8 71 55.2 0.00 0.00 77.4 30.9 1,013.3 0.7 SE | 128 2.0 ESE | 104 271 47 0.3 1.9 67.8 3.7
10/22/20 - 0920 65.1 64.6 70 54.8 0.00 0.00 77.4 30.9 1,013.3 1.3 SW | 222 3.0 SSW | 201 272 42 0.9 1.8 67.2 3.7
10/22/20 - 0910 64.9 64.4 71 55.1 0.00 0.00 77.4 30.9 1,013.2 0.8 SW | 216 3.0 S | 178 272 35 0.5 1.7 66.5 3.7
10/22/20 - 0900 64.6 64.2 73 55.6 0.00 0.00 77.3 30.9 1,013.1 0.3 NNW | 327 1.4 N | 0 272 28 0.1 1.6 65.8 3.7
10/22/20 - 0850 64.6 64.2 74 55.9 0.00 0.00 77.4 30.9 1,013.1 0.4 N | 11 2.0 NNW | 348 272 20 0.0 1.6 65.2 3.7
10/22/20 - 0840 64.4 64.1 73 55.5 0.00 0.00 77.4 30.9 1,013.0 0.2 NE | 39 1.0 NE | 43 272 12 0.0 1.6 64.8 3.7
10/22/20 - 0830 64.3 63.7 73 55.2 0.00 0.00 77.4 30.9 1,012.8 0.5 WNW | 283 1.6 W | 259 272 10 0.3 1.6 64.5 3.7
10/22/20 - 0820 63.9 63.6 75 55.7 0.00 0.00 77.4 30.9 1,012.6 0.8 SW | 229 1.9 W | 266 272 7 0.3 1.5 64.3 3.7
10/22/20 - 0810 63.9 63.4 76 55.9 0.00 0.00 77.7 30.9 1,012.5 0.0 SSW | 203 0.8 SSW | 206 273 5 0.0 1.5 64.2 3.7
10/22/20 - 0800 63.6 63.2 77 55.9 0.00 0.00 77.7 30.9 1,012.3 0.6 SSW | 204 1.9 SSW | 193 273 5 0.2 1.5 63.8 3.7
10/22/20 - 0750 63.4 63.1 78 56.2 0.00 0.00 77.8 30.9 1,012.1 0.4 SSE | 164 1.5 SE | 134 273 4 0.1 1.5 63.6 3.7
10/22/20 - 0740 63.4 63.1 78 56.2 0.00 0.00 77.7 30.9 1,012.1 0.5 SW | 221 1.1 SW | 215 274 0 0.0 1.4 63.2 3.7
10/22/20 - 0730 63.3 62.8 78 55.9 0.00 0.00 77.7 31.0 1,012.0 0.6 S | 191 2.0 S | 190 274 -3 0.3 1.4 63.0 3.7
10/22/20 - 0720 63.1 62.8 78 56.0 0.00 0.00 77.8 31.0 1,012.0 0.4 SSW | 198 1.3 SSW | 212 274 -5 0.1 1.4 62.8 3.7
10/22/20 - 0710 63.1 62.8 78 56.2 0.00 0.00 77.6 30.9 1,012.0 0.1 E | 91 1.4 SE | 126 274 -6 0.0 1.4 62.5 3.7
10/22/20 - 0700 63.1 62.8 78 56.2 0.00 0.00 77.5 31.0 1,011.9 0.5 S | 170 1.6 SSE | 155 283 -6 0.3 1.4 62.4 3.7
10/22/20 - 0650 63.1 62.8 79 56.3 0.00 0.00 77.5 31.0 1,011.9 0.0 E | 89 0.6 ENE | 75 293 -6 0.0 1.3 62.2 3.7
10/22/20 - 0640 63.0 62.5 80 56.4 0.00 0.00 77.5 31.0 1,012.0 0.3 SSE | 152 2.6 S | 181 301 -7 0.3 1.3 62.2 3.7
10/22/20 - 0630 62.7 62.3 81 56.7 0.00 0.00 77.5 31.0 1,011.9 1.6 S | 174 3.4 S | 170 309 -7 1.0 1.3 62.2 3.7
10/22/20 - 0620 62.6 62.3 83 57.2 0.00 0.00 77.6 31.0 1,012.0 0.8 S | 182 2.6 S | 186 315 -7 0.3 1.1 62.4 3.7
10/22/20 - 0610 62.5 62.1 84 57.6 0.00 0.00 77.5 31.0 1,011.9 1.5 S | 175 2.8 SSE | 154 320 -8 0.9 1.1 62.5 3.7
10/22/20 - 0600 62.6 62.0 87 58.3 0.00 0.00 77.5 31.0 1,011.9 0.8 ESE | 114 2.8 ESE | 114 323 -7 0.2 0.9 62.8 3.7
10/22/20 - 0550 62.5 62.3 88 58.8 0.00 0.00 77.5 31.0 1,011.9 0.0 SSE | 155 0.7 SE | 146 322 -6 0.0 0.9 62.7 3.7
10/22/20 - 0540 62.8 62.3 88 59.1 0.00 0.00 77.7 31.0 1,011.8 0.0 ENE | 66 0.3 ENE | 67 323 -6 0.0 0.9 62.8 3.7
10/22/20 - 0530 62.6 62.2 89 59.0 0.00 0.00 77.6 31.0 1,011.7 0.0 ENE | 73 0.0 ENE | 73 323 -6 0.0 0.9 62.9 3.7
10/22/20 - 0520 62.5 62.1 89 59.0 0.00 0.00 77.6 31.0 1,011.6 0.5 SSW | 210 1.4 SW | 226 326 -6 0.2 0.9 62.8 3.7
10/22/20 - 0510 62.5 62.2 89 59.0 0.00 0.00 77.7 31.0 1,011.6 1.1 SW | 214 1.6 SSW | 203 328 -6 0.4 0.8 62.8 3.7
10/22/20 - 0500 62.5 62.2 89 59.0 0.00 0.00 77.7 31.0 1,011.5 0.6 S | 191 1.9 SW | 217 334 -6 0.2 0.8 62.8 3.7
10/22/20 - 0450 62.6 62.3 89 59.0 0.00 0.00 77.7 31.0 1,011.4 0.1 SE | 131 0.8 E | 91 338 -6 0.0 0.7 62.7 3.7
10/22/20 - 0440 62.5 62.3 89 59.0 0.00 0.00 77.8 31.0 1,011.4 0.0 N | 0 0.0 ENE | 64 340 -6 0.0 0.7 62.6 3.7
10/22/20 - 0430 62.5 62.2 88 58.9 0.00 0.00 77.8 31.0 1,011.4 0.0 N | 0 0.0 NE | 52 339 -6 0.0 0.7 62.6 3.7
10/22/20 - 0420 62.5 62.1 88 58.8 0.00 0.00 77.8 31.0 1,011.4 0.0 N | 0 0.0 NE | 53 342 -6 0.0 0.7 62.7 3.7
10/22/20 - 0410 62.5 62.0 88 58.7 0.00 0.00 77.9 31.0 1,011.4 0.0 N | 0 0.0 E | 85 347 -6 0.0 0.7 62.7 3.7
10/22/20 - 0400 62.3 62.1 88 58.6 0.00 0.00 77.9 31.0 1,011.5 0.2 E | 84 1.0 E | 90 353 -6 0.0 0.7 62.9 3.7
10/22/20 - 0350 62.5 62.2 87 58.5 0.00 0.00 77.9 31.0 1,011.5 0.2 E | 99 0.9 SE | 132 319 -6 0.0 0.7 62.9 3.7
10/22/20 - 0340 62.4 62.2 87 58.4 0.00 0.00 78.0 31.0 1,011.5 0.1 E | 91 0.8 ENE | 72 286 -7 0.0 0.7 62.9 3.7
10/22/20 - 0330 62.4 62.2 87 58.4 0.00 0.00 77.9 31.0 1,011.5 0.0 N | 0 0.0 NE | 50 267 -7 0.0 0.7 62.8 3.7
10/22/20 - 0320 62.4 62.2 87 58.3 0.00 0.00 78.0 31.0 1,011.6 0.1 WSW | 241 0.8 WSW | 240 261 -7 0.0 0.7 62.8 3.7
10/22/20 - 0310 62.4 62.2 87 58.3 0.00 0.00 77.5 31.0 1,011.7 0.3 SW | 226 1.1 SW | 217 260 -7 0.2 0.7 62.4 3.7
10/22/20 - 0300 62.5 62.2 87 58.4 0.00 0.00 77.4 31.0 1,011.7 0.0 ESE | 116 0.5 ESE | 116 260 -7 0.0 0.7 62.4 3.7
10/22/20 - 0250 62.5 62.2 87 58.5 0.00 0.00 77.5 31.0 1,011.7 0.0 N | 0 0.0 NE | 41 256 -7 0.0 0.7 62.5 3.7
10/22/20 - 0240 62.5 62.1 87 58.5 0.00 0.00 77.5 31.0 1,011.8 0.1 NE | 52 0.6 NE | 51 262 -7 0.0 0.7 62.5 3.7
10/22/20 - 0230 62.3 61.9 88 58.5 0.00 0.00 77.6 31.0 1,011.8 0.0 N | 0 0.0 WSW | 246 275 -7 0.0 0.7 62.4 3.7
10/22/20 - 0220 62.1 61.8 88 58.4 0.00 0.00 77.6 31.0 1,011.8 0.1 S | 176 1.0 S | 174 262 -7 0.0 0.7 62.5 3.7
10/22/20 - 0210 62.1 61.7 88 58.4 0.00 0.00 77.6 31.0 1,011.8 0.9 SSW | 192 2.1 S | 172 267 -7 0.4 0.7 62.5 3.7
10/22/20 - 0200 62.2 61.7 88 58.4 0.00 0.00 77.6 31.0 1,011.8 1.7 S | 190 3.3 SSW | 209 260 -7 1.1 0.6 62.7 3.7
10/22/20 - 0150 62.3 62.0 88 58.5 0.00 0.00 77.6 31.0 1,011.8 2.0 SSW | 213 3.2 SW | 224 240 -7 1.4 0.5 62.8 3.7
10/22/20 - 0140 62.5 62.2 87 58.4 0.00 0.00 77.6 31.0 1,011.9 0.7 SSW | 200 1.9 SSW | 205 246 -7 0.4 0.2 62.9 3.7
10/22/20 - 0130 62.4 62.1 86 58.2 0.00 0.00 77.6 31.0 1,011.9 0.7 SSW | 210 1.2 SW | 233 254 -8 0.3 0.2 63.0 3.7
10/22/20 - 0120 62.5 62.2 86 58.0 0.00 0.00 77.7 31.0 1,011.9 0.8 SW | 215 1.6 SSW | 210 270 -9 0.4 0.1 62.8 3.7
10/22/20 - 0110 62.7 62.4 85 58.0 0.00 0.00 77.6 31.0 1,011.9 0.1 WSW | 245 0.6 WSW | 244 258 -9 0.0 0.0 63.0 3.7
10/22/20 - 0100 62.8 62.4 85 58.0 0.00 0.00 77.7 31.0 1,011.9 0.0 E | 83 0.4 ENE | 73 270 -9 0.0 0.0 63.2 3.7
10/22/20 - 0050 62.8 62.5 84 57.8 0.00 0.00 77.9 31.0 1,011.9 0.1 E | 101 0.7 ESE | 115 242 -9 0.1 0.0 63.4 3.7
10/22/20 - 0040 62.8 62.5 84 57.8 0.00 0.00 77.8 31.0 1,011.9 0.2 E | 84 1.1 ENE | 68 274 -10 0.1 0.0 63.4 3.7
10/22/20 - 0030 62.8 62.5 84 57.8 0.00 0.00 77.7 31.0 1,011.9 0.0 E | 100 0.7 SE | 124 274 -10 0.0 0.0 63.2 3.7
10/22/20 - 0020 62.7 62.4 84 57.8 0.00 0.00 77.7 31.0 1,011.9 0.2 NE | 52 1.1 NE | 45 267 -10 0.0 0.0 63.3 3.7
10/22/20 - 0010 62.6 62.3 84 57.7 0.00 0.00 77.8 31.0 1,011.9 0.0 N | 0 0.0 WSW | 241 274 -10 0.0 0.0 63.0 3.7
10/22/20 - 0000 62.4 62.1 85 57.6 0.00 0.00 77.8 31.0 1,012.0 0.2 WSW | 237 1.4 WSW | 239 274 -10 0.1 14.4 62.8 3.7
10/21/20 - 2350 62.3 61.8 85 57.6 0.00 0.00 77.9 31.0 1,012.1 0.5 SW | 219 2.0 SSW | 204 274 -10 0.3 14.4 62.4 3.7
10/21/20 - 2340 61.9 61.4 86 57.5 0.00 0.00 77.9 31.1 1,012.1 0.9 WSW | 240 2.5 W | 277 274 -9 0.6 14.3 61.7 3.7
10/21/20 - 2330 61.7 61.1 86 57.3 0.00 0.00 78.0 31.1 1,012.0 0.0 SSW | 205 0.2 SSW | 205 274 -9 0.0 14.2 61.0 3.7
10/21/20 - 2320 61.2 60.4 87 57.0 0.00 0.00 77.9 31.1 1,012.0 1.1 SW | 216 1.8 SSW | 194 274 -8 0.5 14.2 60.0 3.7
10/21/20 - 2310 60.5 59.9 88 56.7 0.00 0.00 78.0 31.1 1,012.1 0.8 SSW | 193 1.8 SSW | 207 274 -7 0.3 14.1 58.5 3.7
10/21/20 - 2300